Time;durP1;ratioP1;P1;durP2;ratioP2;P2;SDS_P1;SDS_P2;PMS_P1;PMS_P2;Temp;Humidity;BMP_temperature;BMP_pressure;BME280_temperature;BME280_humidity;BME280_pressure;Samples;Min_cycle;Max_cycle;Signal;HPM_P1;HPM_P2
2021/12/10 00:00:23;;;;;;;20.48;6.97;;;;;;;10.79;80.07;98839.25;5032829;28;20018;-77
2021/12/10 00:02:48;;;;;;;16.35;5.38;;;;;;;10.47;79.44;98782.63;5033686;28;20033;-77
2021/12/10 00:05:18;;;;;;;18.02;4.45;;;;;;;10.87;79.48;98832.97;5033909;28;21234;-77
2021/12/10 00:07:45;;;;;;;19.58;9.38;;;;;;;10.82;79.79;98815.06;5032954;28;20044;-78
2021/12/10 00:10:14;;;;;;;23.30;5.53;;;;;;;10.77;79.56;98805.09;5033746;28;20014;-77
2021/12/10 00:12:49;;;;;;;20.05;4.10;;;;;;;10.59;79.89;98762.59;5033769;28;20022;-76
2021/12/10 00:15:15;;;;;;;18.88;3.80;;;;;;;10.92;79.65;98790.94;5032471;28;20022;-77
2021/12/10 00:17:40;;;;;;;13.70;5.80;;;;;;;11.03;79.73;98812.31;5033734;28;20028;-77
2021/12/10 00:20:09;;;;;;;14.98;4.35;;;;;;;11.37;79.44;98840.47;5033744;28;20048;-77
2021/12/10 00:22:40;;;;;;;17.90;4.13;;;;;;;11.42;79.07;98845.97;5033625;28;20037;-77
2021/12/10 00:25:13;;;;;;;22.05;4.93;;;;;;;11.49;79.30;98850.44;5033754;28;20017;-78
2021/12/10 00:27:39;;;;;;;21.95;6.55;;;;;;;11.04;78.82;98776.13;5033514;28;20029;-76
2021/12/10 00:30:24;;;;;;;16.45;5.00;;;;;;;11.24;78.74;98798.16;5033539;28;20074;-78
2021/12/10 00:33:11;;;;;;;18.83;4.55;;;;;;;11.34;78.57;98801.22;5033609;28;20017;-77
2021/12/10 00:35:39;;;;;;;21.83;5.82;;;;;;;11.48;78.48;98802.06;5032935;28;20162;-77
2021/12/10 00:38:05;;;;;;;21.10;5.15;;;;;;;11.67;78.21;98829.53;5033297;28;20510;-77
2021/12/10 00:40:31;;;;;;;19.73;5.20;;;;;;;11.23;77.87;98762.19;5033377;28;20155;-76
2021/12/10 00:42:57;;;;;;;16.98;4.07;;;;;;;11.28;77.75;98753.66;5032077;28;20021;-76
2021/12/10 00:45:24;;;;;;;17.45;4.43;;;;;;;11.76;77.92;98820.38;5033348;28;20026;-77
2021/12/10 00:47:50;;;;;;;16.80;4.85;;;;;;;11.73;77.89;98813.66;5031883;28;20014;-77
2021/12/10 00:50:21;;;;;;;18.88;3.90;;;;;;;11.79;78.00;98809.44;5033344;28;20022;-77
2021/12/10 00:52:47;;;;;;;15.43;3.92;;;;;;;11.81;77.90;98819.78;5033151;28;20025;-77
2021/12/10 00:55:13;;;;;;;16.60;4.80;;;;;;;11.43;77.48;98730.47;5033122;28;20026;-78
2021/12/10 00:57:39;;;;;;;14.60;4.93;;;;;;;11.65;76.57;98753.06;5032979;28;20025;-78
2021/12/10 01:00:08;;;;;;;18.85;4.65;;;;;;;12.08;76.93;98805.56;5031637;28;20032;-77
2021/12/10 01:02:34;;;;;;;12.35;3.85;;;;;;;11.81;76.22;98761.63;5031621;28;20021;-78
2021/12/10 01:05:00;;;;;;;16.92;4.07;;;;;;;11.60;76.89;98723.75;5032779;28;20395;-76
2021/12/10 01:07:30;;;;;;;22.67;4.80;;;;;;;12.18;76.52;98803.31;5032803;28;20503;-77
2021/12/10 01:09:58;;;;;;;24.92;5.45;;;;;;;11.90;76.83;98744.53;5032562;28;20032;-76
2021/12/10 01:12:29;;;;;;;22.55;5.78;;;;;;;12.19;77.01;98786.41;5032500;28;20021;-77
2021/12/10 01:28:39;;;;;;;20.25;5.15;;;;;;;12.02;76.16;98719.06;5032896;28;20029;-77
2021/12/10 01:31:04;;;;;;;20.58;4.88;;;;;;;12.33;76.24;98743.00;5032476;28;20068;-77
2021/12/10 01:33:30;;;;;;;20.02;5.13;;;;;;;12.02;76.11;98685.50;5031211;28;20494;-75
2021/12/10 01:35:57;;;;;;;14.90;4.53;;;;;;;12.36;76.14;98753.19;5032196;28;20112;-76
2021/12/10 01:38:24;;;;;;;18.60;4.38;;;;;;;12.35;76.42;98748.09;5032162;28;20021;-76
2021/12/10 01:40:55;;;;;;;19.10;4.68;;;;;;;12.35;75.86;98737.50;5030977;28;20028;-76
2021/12/10 01:43:24;;;;;;;16.00;4.43;;;;;;;12.35;76.25;98754.19;5032333;28;20029;-76
2021/12/10 01:45:54;;;;;;;20.45;4.75;;;;;;;11.98;75.93;98684.28;5031759;28;20029;-77
2021/12/10 01:48:26;;;;;;;20.25;4.85;;;;;;;11.50;75.76;98593.03;5032095;28;20103;-76
2021/12/10 01:50:53;;;;;;;17.60;4.28;;;;;;;12.41;75.31;98723.44;5030836;28;20079;-77
2021/12/10 01:53:24;;;;;;;20.60;4.97;;;;;;;12.39;75.43;98728.94;5032311;28;20030;-76
2021/12/10 01:55:53;;;;;;;16.50;5.13;;;;;;;12.44;75.09;98714.25;5032110;28;20525;-77
2021/12/10 01:58:21;;;;;;;18.70;4.15;;;;;;;11.91;74.96;98638.53;5032010;28;20478;-76
2021/12/10 02:00:53;;;;;;;16.88;3.75;;;;;;;11.99;74.68;98619.78;5030821;28;20028;-76
2021/12/10 02:03:19;;;;;;;18.98;3.95;;;;;;;12.55;74.56;98718.91;5031868;28;20025;-77
2021/12/10 02:05:45;;;;;;;17.00;3.72;;;;;;;12.54;74.08;98710.13;5031641;28;20032;-76
2021/12/10 02:08:10;;;;;;;16.27;3.78;;;;;;;12.54;73.94;98711.97;5031571;28;20486;-77
2021/12/10 02:10:36;;;;;;;17.88;5.75;;;;;;;12.62;73.98;98714.38;5031849;28;20048;-76
2021/12/10 02:13:03;;;;;;;14.00;4.20;;;;;;;11.85;73.70;98585.63;5031635;28;20021;-77
2021/12/10 02:15:29;;;;;;;16.98;4.18;;;;;;;12.59;73.82;98694.44;5030363;28;20027;-77
2021/12/10 02:17:57;;;;;;;14.25;4.43;;;;;;;12.20;74.01;98634.53;5031539;28;20026;-76
2021/12/10 02:20:33;;;;;;;21.58;5.15;;;;;;;12.50;73.49;98689.59;5031631;28;20021;-78
2021/12/10 02:23:02;;;;;;;23.20;5.75;;;;;;;12.09;73.82;98628.09;5031761;28;20022;-77
2021/12/10 02:25:29;;;;;;;18.45;4.20;;;;;;;12.45;73.96;98682.28;5031411;28;20105;-76
2021/12/10 02:27:57;;;;;;;19.48;4.57;;;;;;;12.12;73.65;98623.38;5031326;28;20018;-77
2021/12/10 02:30:26;;;;;;;20.48;4.90;;;;;;;12.48;73.30;98646.63;5031525;28;20100;-77
2021/12/10 02:32:52;;;;;;;19.60;4.97;;;;;;;12.07;73.29;98592.28;5031468;28;20033;-77
2021/12/10 02:35:18;;;;;;;26.05;4.68;;;;;;;12.34;73.58;98641.41;5031378;28;20009;-76
2021/12/10 02:37:45;;;;;;;18.00;4.35;;;;;;;12.55;73.58;98656.16;5031142;28;20095;-75
2021/12/10 02:40:13;;;;;;;20.65;4.80;;;;;;;12.63;73.38;98669.19;5031419;28;20025;-76
2021/12/10 02:42:40;;;;;;;23.90;5.10;;;;;;;12.60;73.36;98661.63;5031336;28;20036;-75
2021/12/10 02:45:08;;;;;;;22.30;5.07;;;;;;;12.64;73.01;98660.22;5031380;28;20121;-77
2021/12/10 02:47:34;;;;;;;18.40;5.05;;;;;;;12.67;73.63;98662.44;5030009;28;20018;-76
2021/12/10 02:50:00;;;;;;;20.35;5.45;;;;;;;12.24;73.70;98597.88;5031330;28;20079;-77
2021/12/10 02:52:27;;;;;;;17.08;4.57;;;;;;;12.67;73.69;98656.31;5031382;28;20079;-76
2021/12/10 02:54:53;;;;;;;25.33;4.72;;;;;;;12.68;73.87;98664.06;5031222;28;20037;-76
2021/12/10 02:57:20;;;;;;;23.40;4.45;;;;;;;12.69;74.00;98649.78;5031603;28;20032;-77
2021/12/10 02:59:45;;;;;;;22.95;5.05;;;;;;;12.17;73.68;98552.13;5034079;28;20021;-76
2021/12/10 03:02:17;;;;;;;25.52;5.63;;;;;;;12.06;73.89;98537.72;5035325;28;20406;-76
2021/12/10 03:04:43;;;;;;;24.05;6.22;;;;;;;12.71;73.84;98670.75;5035129;28;20025;-77
2021/12/10 03:07:14;;;;;;;16.98;5.10;;;;;;;12.35;73.63;98587.44;5033956;28;20032;-76
2021/12/10 03:09:44;;;;;;;25.83;6.35;;;;;;;12.65;73.77;98624.75;5035011;28;20082;-76
2021/12/10 03:12:12;;;;;;;23.45;5.70;;;;;;;12.29;74.02;98555.72;5034797;28;20013;-76
2021/12/10 03:14:39;;;;;;;19.25;4.05;;;;;;;12.27;73.73;98555.94;5035069;28;20021;-76
2021/12/10 03:17:09;;;;;;;15.73;4.88;;;;;;;12.85;74.07;98642.34;5034803;28;20027;-75
2021/12/10 03:19:35;;;;;;;23.85;6.00;;;;;;;12.87;73.72;98622.56;5034845;28;20033;-76
2021/12/10 03:22:01;;;;;;;22.17;5.93;;;;;;;12.47;73.48;98557.63;5034657;28;20021;-76
2021/12/10 03:24:28;;;;;;;21.02;4.47;;;;;;;12.47;73.55;98547.84;5035059;28;20052;-77
2021/12/10 03:27:00;;;;;;;21.95;5.35;;;;;;;12.62;73.79;98564.25;5034854;28;20017;-76
2021/12/10 03:29:28;;;;;;;23.50;5.68;;;;;;;12.53;73.64;98549.66;5034638;28;20041;-77
2021/12/10 03:31:56;;;;;;;22.50;5.60;;;;;;;12.77;73.14;98574.56;5034374;28;20029;-77
2021/12/10 03:34:22;;;;;;;22.83;5.50;;;;;;;12.95;73.06;98600.28;5034559;28;20049;-77
2021/12/10 03:36:50;;;;;;;18.27;4.65;;;;;;;12.96;72.98;98617.81;5034493;28;20470;-77
2021/12/10 03:39:21;;;;;;;17.98;5.20;;;;;;;12.78;72.42;98586.78;5034541;28;20454;-77
2021/12/10 03:41:49;;;;;;;19.30;4.53;;;;;;;12.89;72.53;98595.84;5033323;28;20029;-76
2021/12/10 03:44:15;;;;;;;22.50;4.75;;;;;;;12.67;73.02;98568.94;5034704;28;20510;-77
2021/12/10 03:46:41;;;;;;;24.50;6.15;;;;;;;12.77;72.91;98585.16;5034503;28;20139;-77
2021/12/10 03:49:07;;;;;;;17.33;4.75;;;;;;;12.86;73.05;98599.75;5033216;28;20017;-75
2021/12/10 03:51:35;;;;;;;20.13;5.30;;;;;;;13.02;72.54;98624.91;5034381;28;20036;-76
2021/12/10 03:54:01;;;;;;;16.17;4.30;;;;;;;12.85;72.82;98581.41;5034439;28;20164;-77
2021/12/10 03:56:29;;;;;;;16.55;4.45;;;;;;;13.08;72.59;98613.44;5034488;28;20025;-76
2021/12/10 03:58:59;;;;;;;20.90;5.25;;;;;;;12.76;72.20;98558.88;5032909;28;20391;-75
2021/12/10 04:01:28;;;;;;;16.95;4.32;;;;;;;12.63;72.36;98549.16;5033971;28;20021;-77
2021/12/10 04:03:54;;;;;;;19.35;4.07;;;;;;;13.11;72.69;98623.59;5033824;28;20413;-76
2021/12/10 04:06:22;;;;;;;17.05;4.03;;;;;;;12.78;72.47;98578.81;5034028;28;20497;-76
2021/12/10 04:08:48;;;;;;;24.52;4.70;;;;;;;13.11;72.70;98626.25;5033821;28;20025;-76
2021/12/10 04:11:15;;;;;;;18.95;4.10;;;;;;;12.47;72.91;98523.22;5032453;28;20025;-76
2021/12/10 04:13:44;;;;;;;17.00;4.47;;;;;;;13.19;72.71;98630.50;5034022;28;20087;-76
2021/12/10 04:16:10;;;;;;;18.88;4.28;;;;;;;12.72;72.88;98564.59;5033732;28;20029;-76
2021/12/10 04:18:37;;;;;;;25.23;5.50;;;;;;;12.79;72.58;98563.75;5032400;28;20434;-77
2021/12/10 04:21:05;;;;;;;16.67;3.75;;;;;;;13.24;72.87;98647.38;5033708;28;20021;-77
2021/12/10 04:23:31;;;;;;;16.67;4.50;;;;;;;12.94;72.90;98614.56;5033951;28;20048;-76
2021/12/10 04:25:56;;;;;;;15.43;3.95;;;;;;;13.26;72.65;98625.94;5033576;28;20494;-76
2021/12/10 04:28:22;;;;;;;18.25;3.95;;;;;;;13.21;72.66;98602.75;5033395;28;20021;-75
2021/12/10 04:30:49;;;;;;;18.35;3.95;;;;;;;13.33;72.57;98608.13;5033424;28;20485;-77
2021/12/10 04:33:21;;;;;;;21.13;5.20;;;;;;;13.36;72.11;98632.38;5033330;28;20021;-76
2021/12/10 04:35:47;;;;;;;16.05;4.00;;;;;;;13.01;72.18;98551.72;5033293;28;20025;-77
2021/12/10 04:38:15;;;;;;;18.00;4.80;;;;;;;13.44;72.23;98626.00;5032137;28;20384;-77
2021/12/10 04:40:41;;;;;;;23.92;4.68;;;;;;;12.90;71.87;98520.66;5033701;28;20028;-76
2021/12/10 04:43:06;;;;;;;19.17;4.65;;;;;;;13.13;72.20;98544.69;5033406;28;20032;-77
2021/12/10 04:45:32;;;;;;;19.35;4.50;;;;;;;13.36;71.99;98599.75;5033530;28;20018;-76
2021/12/10 04:47:58;;;;;;;21.25;4.32;;;;;;;13.52;71.76;98587.78;5031977;28;20035;-77
2021/12/10 04:50:27;;;;;;;19.38;4.43;;;;;;;13.29;71.84;98568.00;5033363;28;20029;-77
2021/12/10 04:52:53;;;;;;;23.20;4.40;;;;;;;13.04;71.83;98519.50;5031854;28;20124;-77
2021/12/10 04:55:19;;;;;;;17.50;4.18;;;;;;;13.08;71.41;98547.19;5033214;28;20018;-76
2021/12/10 04:57:45;;;;;;;19.52;5.13;;;;;;;13.47;71.35;98577.03;5033093;28;20091;-77
2021/12/10 05:00:17;;;;;;;22.08;4.60;;;;;;;13.22;71.08;98532.81;5033063;28;20049;-76
2021/12/10 05:02:44;;;;;;;;;;;;;;;13.36;71.36;98582.00;5033397;28;20022;-76
2021/12/10 05:05:10;;;;;;;22.83;5.03;;;;;;;13.23;71.25;98560.94;5032846;28;19909;-77
2021/12/10 05:07:37;;;;;;;22.65;4.80;;;;;;;12.95;71.46;98521.63;5032786;28;20075;-78
2021/12/10 05:10:09;;;;;;;23.50;5.78;;;;;;;13.36;71.27;98587.31;5032654;28;20017;-77
2021/12/10 05:12:35;;;;;;;19.73;5.45;;;;;;;13.32;71.07;98594.06;5032798;28;20025;-76
2021/12/10 05:15:02;;;;;;;21.98;5.43;;;;;;;13.34;70.81;98597.31;5032736;28;20028;-77
2021/12/10 05:17:31;;;;;;;22.77;5.07;;;;;;;13.42;70.66;98595.44;5032483;28;20031;-76
2021/12/10 05:19:59;;;;;;;23.80;5.60;;;;;;;12.87;70.97;98518.44;5032706;28;20052;-77
2021/12/10 05:22:24;;;;;;;22.95;5.68;;;;;;;12.82;70.69;98508.50;5032777;28;20021;-77
2021/12/10 05:24:50;;;;;;;20.38;5.00;;;;;;;13.41;70.46;98591.16;5032672;28;20506;-76
2021/12/10 05:27:15;;;;;;;18.73;5.60;;;;;;;12.85;70.34;98494.81;5032575;28;20022;-76
2021/12/10 05:29:41;;;;;;;18.98;5.47;;;;;;;13.40;70.59;98602.81;5032244;28;20506;-76
2021/12/10 05:32:07;;;;;;;28.55;5.13;;;;;;;13.21;70.52;98588.69;5031077;28;20014;-76
2021/12/10 05:34:32;;;;;;;18.60;5.43;;;;;;;13.39;70.56;98619.75;5031188;28;20017;-77
2021/12/10 05:36:59;;;;;;;27.17;5.03;;;;;;;13.30;70.45;98608.56;5031893;28;20129;-77
2021/12/10 05:39:25;;;;;;;19.55;4.55;;;;;;;12.68;70.59;98499.84;5032091;28;20075;-76
2021/12/10 05:41:52;;;;;;;25.20;6.13;;;;;;;13.23;70.26;98591.91;5032006;28;20079;-76
2021/12/10 05:44:19;;;;;;;21.50;4.75;;;;;;;13.44;70.02;98617.25;5031970;28;20045;-76
2021/12/10 05:46:44;;;;;;;20.10;5.47;;;;;;;13.45;69.94;98619.69;5032176;28;20071;-76
2021/12/10 05:49:10;;;;;;;18.00;4.30;;;;;;;13.00;69.96;98566.00;5032172;28;20029;-77
2021/12/10 05:51:36;;;;;;;23.80;5.22;;;;;;;13.45;70.03;98629.47;5032139;28;20559;-77
2021/12/10 05:54:02;;;;;;;20.40;4.50;;;;;;;13.43;69.96;98620.94;5032257;28;20033;-76
2021/12/10 05:56:27;;;;;;;21.58;6.05;;;;;;;12.88;70.09;98542.06;5030589;28;20167;-76
2021/12/10 05:58:53;;;;;;;27.13;5.35;;;;;;;13.41;70.29;98637.06;5031832;28;20104;-76
2021/12/10 06:01:21;;;;;;;21.85;5.10;;;;;;;12.96;70.15;98562.16;5031889;28;20112;-78
2021/12/10 06:03:53;;;;;;;24.08;4.95;;;;;;;13.39;70.23;98633.81;5031660;28;20130;-77
2021/12/10 06:06:26;;;;;;;24.02;5.60;;;;;;;12.99;70.26;98575.78;5031708;28;20021;-75
2021/12/10 06:08:53;;;;;;;22.90;6.03;;;;;;;12.81;70.21;98551.09;5038172;28;20025;-76
2021/12/10 06:11:21;;;;;;;22.55;7.45;;;;;;;13.25;70.22;98624.31;5051446;28;20029;-76
2021/12/10 06:13:46;;;;;;;24.60;6.60;;;;;;;12.99;70.37;98577.63;5050248;28;20029;-76
2021/12/10 06:16:13;;;;;;;22.33;6.32;;;;;;;12.73;70.08;98517.75;5051469;28;20032;-77
2021/12/10 06:18:39;;;;;;;20.20;5.15;;;;;;;12.95;70.13;98576.44;5051310;28;20413;-76
2021/12/10 06:21:05;;;;;;;25.25;5.18;;;;;;;13.45;69.76;98648.84;5066836;28;20017;-76
2021/12/10 06:23:31;;;;;;;23.15;5.75;;;;;;;13.45;69.60;98645.38;5050977;28;20031;-77
2021/12/10 06:25:57;;;;;;;26.60;6.78;;;;;;;13.50;69.46;98635.75;5049933;28;20032;-77
2021/12/10 06:28:22;;;;;;;24.27;6.75;;;;;;;13.27;69.56;98598.41;5045453;28;20025;-76
2021/12/10 06:30:51;;;;;;;17.75;4.90;;;;;;;13.61;69.23;98642.97;5031422;28;20021;-77
2021/12/10 06:33:19;;;;;;;19.08;5.78;;;;;;;13.65;68.92;98635.38;5040508;28;20025;-77
2021/12/10 06:35:48;;;;;;;16.75;5.22;;;;;;;13.39;68.58;98590.56;5050885;28;20029;-77
2021/12/10 06:38:15;;;;;;;18.02;5.13;;;;;;;13.74;68.57;98660.59;5051160;28;20521;-76
2021/12/10 06:40:42;;;;;;;17.52;4.63;;;;;;;13.27;68.10;98587.81;5051109;28;20061;-76
2021/12/10 06:43:09;;;;;;;21.58;5.22;;;;;;;13.35;68.52;98606.91;5038835;28;20549;-78
2021/12/10 06:45:37;;;;;;;22.45;5.38;;;;;;;13.00;68.60;98566.00;5032363;28;20029;-77
2021/12/10 06:48:05;;;;;;;19.42;4.97;;;;;;;13.28;68.58;98615.94;5038438;28;20017;-76
2021/12/10 06:50:35;;;;;;;23.08;6.90;;;;;;;13.24;68.74;98607.59;5049285;28;20501;-76
2021/12/10 06:53:01;;;;;;;29.52;12.90;;;;;;;13.39;69.09;98619.75;5031729;28;20028;-77
2021/12/10 06:55:28;;;;;;;31.20;8.68;;;;;;;13.44;69.18;98639.28;5030702;28;20108;-77
2021/12/10 06:57:55;;;;;;;24.30;6.28;;;;;;;13.67;69.46;98681.06;5028591;28;20025;-77
2021/12/10 07:00:42;;;;;;;22.70;6.15;;;;;;;13.30;69.69;98625.28;5028689;28;20025;-77
2021/12/10 07:03:10;;;;;;;31.60;6.10;;;;;;;13.62;70.03;98671.13;5029526;28;20108;-76
2021/12/10 07:05:36;;;;;;;26.48;7.82;;;;;;;13.31;70.25;98637.53;5040278;28;20498;-75
2021/12/10 07:08:02;;;;;;;19.55;6.43;;;;;;;13.25;70.51;98621.69;5034296;28;20041;-77
2021/12/10 07:10:27;;;;;;;27.60;6.68;;;;;;;13.04;70.74;98594.50;5030636;28;20029;-76
2021/12/10 07:12:53;;;;;;;23.23;6.10;;;;;;;13.57;71.07;98684.22;5033006;28;20033;-77
2021/12/10 07:15:18;;;;;;;25.83;5.60;;;;;;;13.54;71.46;98695.28;5050570;28;20159;-78
2021/12/10 07:17:47;;;;;;;22.25;5.60;;;;;;;13.39;72.03;98667.47;5037832;28;20021;-77
2021/12/10 07:20:14;;;;;;;24.95;5.70;;;;;;;13.45;72.83;98711.69;5030872;28;20026;-78
2021/12/10 07:22:40;;;;;;;22.63;8.75;;;;;;;12.91;72.88;98621.09;5044249;28;20049;-78
2021/12/10 07:25:07;;;;;;;26.05;8.50;;;;;;;13.38;73.25;98706.44;5050824;28;20025;-77
2021/12/10 07:27:33;;;;;;;22.60;5.25;;;;;;;12.75;74.25;98623.47;5032850;28;20022;-78
2021/12/10 07:29:58;;;;;;;18.02;5.70;;;;;;;13.26;74.17;98681.63;5031212;28;20525;-77
2021/12/10 07:32:24;;;;;;;14.52;4.85;;;;;;;12.73;74.69;98611.25;5031442;28;20034;-78
2021/12/10 07:34:50;;;;;;;16.92;4.90;;;;;;;13.08;74.48;98657.66;5035606;28;20109;-77
2021/12/10 07:37:15;;;;;;;21.25;4.78;;;;;;;12.82;74.98;98634.84;5036426;28;20064;-77
2021/12/10 07:39:41;;;;;;;22.33;7.95;;;;;;;12.86;75.55;98633.38;5034862;28;20037;-77
2021/12/10 07:42:07;;;;;;;18.75;4.95;;;;;;;13.05;74.98;98667.69;5030442;28;20048;-77
2021/12/10 07:44:35;;;;;;;17.08;4.38;;;;;;;13.01;75.46;98678.91;5048425;28;20054;-77
2021/12/10 07:47:02;;;;;;;18.15;5.60;;;;;;;12.77;75.35;98637.31;5051533;28;20013;-79
2021/12/10 07:49:30;;;;;;;24.70;6.55;;;;;;;12.99;75.72;98663.22;5051761;28;20017;-78
2021/12/10 07:51:57;;;;;;;14.60;4.53;;;;;;;12.56;75.61;98596.06;5057395;28;20017;-78
2021/12/10 07:54:23;;;;;;;17.73;4.45;;;;;;;12.31;76.33;98566.91;5043491;28;20037;-77
2021/12/10 07:56:49;;;;;;;16.27;4.32;;;;;;;12.88;76.43;98677.16;5036979;28;20029;-79
2021/12/10 07:59:16;;;;;;;22.40;8.65;;;;;;;12.85;76.24;98690.84;5053370;28;20032;-78
2021/12/10 08:01:41;;;;;;;18.65;7.45;;;;;;;12.66;76.51;98681.19;5052170;28;20064;-78
2021/12/10 08:04:07;;;;;;;14.10;4.53;;;;;;;12.34;75.97;98651.19;5043339;28;20079;-77
2021/12/10 08:06:35;;;;;;;10.00;3.47;;;;;;;12.67;75.71;98701.34;5040859;28;20017;-78
2021/12/10 08:09:06;;;;;;;7.07;2.40;;;;;;;12.48;76.00;98687.16;5062466;28;20403;-78
2021/12/10 08:11:32;;;;;;;4.70;1.65;;;;;;;12.45;76.11;98703.47;5033571;28;20025;-78
2021/12/10 08:13:58;;;;;;;4.65;1.70;;;;;;;12.47;75.84;98711.19;5044725;28;20497;-77
2021/12/10 08:16:25;;;;;;;4.03;1.90;;;;;;;12.41;76.51;98708.34;5040577;28;20055;-77
2021/12/10 08:18:51;;;;;;;5.07;1.77;;;;;;;12.24;75.71;98667.50;5047938;28;20822;-77
2021/12/10 08:21:17;;;;;;;4.43;1.27;;;;;;;12.40;76.24;98692.69;5035282;28;20100;-78
2021/12/10 08:23:43;;;;;;;6.32;2.63;;;;;;;12.07;75.77;98631.97;5033933;28;20567;-78
2021/12/10 08:26:10;;;;;;;4.07;2.08;;;;;;;12.39;75.59;98676.00;5036126;28;20558;-79
2021/12/10 08:28:36;;;;;;;6.68;3.95;;;;;;;12.32;75.67;98655.88;5041517;28;20134;-78
2021/12/10 08:31:04;;;;;;;5.15;2.60;;;;;;;12.36;76.05;98659.72;5051362;28;20032;-77
2021/12/10 08:33:30;;;;;;;9.45;5.63;;;;;;;11.94;75.90;98585.22;5052126;28;20150;-77
2021/12/10 08:35:59;;;;;;;7.03;4.95;;;;;;;12.40;75.62;98661.72;5050736;28;20133;-77
2021/12/10 08:38:25;;;;;;;7.80;4.22;;;;;;;12.32;75.84;98669.91;5032613;28;20028;-77
2021/12/10 08:40:58;;;;;;;6.28;4.30;;;;;;;12.30;75.89;98639.38;5034500;28;20039;-78
2021/12/10 08:43:26;;;;;;;7.40;4.80;;;;;;;12.06;75.82;98635.63;5050374;28;20064;-79
2021/12/10 08:45:52;;;;;;;6.32;3.30;;;;;;;11.97;75.67;98586.63;5051046;28;20430;-78
2021/12/10 08:48:19;;;;;;;6.53;4.18;;;;;;;12.42;76.35;98666.81;5039233;28;20063;-78
2021/12/10 08:50:45;;;;;;;7.10;3.60;;;;;;;12.00;75.72;98608.19;5035510;28;20469;-79
2021/12/10 08:53:13;;;;;;;6.25;4.85;;;;;;;12.06;75.64;98603.88;5058469;28;20060;-78
2021/12/10 08:55:43;;;;;;;8.20;4.15;;;;;;;12.05;76.56;98605.72;5050509;28;20048;-78
2021/12/10 08:58:09;;;;;;;8.05;4.68;;;;;;;12.07;76.40;98603.66;5051570;28;20083;-77
2021/12/10 09:00:37;;;;;;;8.18;3.90;;;;;;;11.99;76.64;98574.00;5032507;28;20419;-78
2021/12/10 09:03:03;;;;;;;10.05;4.82;;;;;;;12.50;76.84;98645.38;5031976;28;20510;-78
2021/12/10 09:05:29;;;;;;;7.15;4.13;;;;;;;12.30;77.12;98632.25;5035455;28;20112;-78
2021/12/10 09:07:54;;;;;;;8.05;6.03;;;;;;;12.00;76.59;98576.44;5044159;28;20051;-77
2021/12/10 09:10:25;;;;;;;10.52;5.10;;;;;;;12.54;76.83;98646.59;5048898;28;20124;-78
2021/12/10 09:12:51;;;;;;;9.88;5.05;;;;;;;12.53;76.75;98637.03;5043053;28;20025;-78
2021/12/10 09:15:20;;;;;;;9.50;4.80;;;;;;;12.55;76.26;98647.41;5050119;28;20078;-77
2021/12/10 09:17:47;;;;;;;8.48;5.22;;;;;;;11.90;76.31;98525.81;5035116;28;20036;-78
2021/12/10 09:20:23;;;;;;;12.75;6.75;;;;;;;12.38;75.98;98594.13;5031965;28;20044;-78
2021/12/10 09:22:49;;;;;;;8.63;5.18;;;;;;;12.55;76.01;98605.84;5031803;28;20124;-78
2021/12/10 09:25:17;;;;;;;8.05;4.47;;;;;;;12.52;76.02;98603.63;5033038;28;20124;-77
2021/12/10 09:27:42;;;;;;;8.93;4.32;;;;;;;12.65;76.48;98640.66;5037327;28;20021;-77
2021/12/10 09:30:14;;;;;;;18.90;9.70;;;;;;;12.57;76.41;98635.56;5056272;28;20051;-77
2021/12/10 09:32:40;;;;;;;11.00;5.38;;;;;;;12.64;76.35;98657.56;5046507;28;20524;-77
2021/12/10 09:35:08;;;;;;;13.57;8.07;;;;;;;12.58;76.58;98653.09;5036188;28;20021;-78
2021/12/10 09:37:36;;;;;;;7.63;2.88;;;;;;;12.19;76.32;98613.59;5045209;28;20108;-77
2021/12/10 09:40:07;;;;;;;7.18;3.60;;;;;;;12.30;76.32;98616.38;5031175;28;20401;-77
2021/12/10 09:42:32;;;;;;;7.93;4.50;;;;;;;12.56;76.34;98684.25;5031756;28;20155;-78
2021/12/10 09:44:58;;;;;;;9.25;4.97;;;;;;;12.57;76.67;98671.81;5045546;28;20506;-78
2021/12/10 09:47:24;;;;;;;10.00;6.90;;;;;;;12.05;75.94;98566.03;5041239;28;20059;-78
2021/12/10 09:49:54;;;;;;;7.97;3.38;;;;;;;12.62;76.03;98645.53;5048901;28;20505;-77
2021/12/10 09:52:22;;;;;;;5.25;2.72;;;;;;;12.68;75.96;98640.22;5038628;28;20034;-77
2021/12/10 09:54:48;;;;;;;7.07;3.50;;;;;;;12.47;75.35;98589.41;5050534;28;20127;-78
2021/12/10 09:57:30;;;;;;;6.75;3.15;;;;;;;12.84;75.44;98630.13;5037531;28;20040;-79
2021/12/10 09:59:56;;;;;;;;;;;;;;;12.72;75.00;98628.16;5031855;28;20057;-78
2021/12/10 10:02:23;;;;;;;8.07;3.28;;;;;;;12.78;74.84;98615.09;5031227;28;20337;-78
2021/12/10 10:04:50;;;;;;;5.82;2.53;;;;;;;12.79;74.70;98630.78;5047428;28;20387;-78
2021/12/10 10:07:28;;;;;;;7.43;4.32;;;;;;;12.44;73.70;98581.88;5030083;28;20513;-77
2021/12/10 10:09:57;;;;;;;6.80;3.60;;;;;;;12.30;74.31;98549.41;5030723;28;20064;-77
2021/12/10 10:12:32;;;;;;;7.57;3.85;;;;;;;12.46;73.92;98579.84;5048439;28;20498;-77
2021/12/10 10:15:00;;;;;;;9.13;3.67;;;;;;;12.53;73.73;98593.84;5036057;28;20406;-78
2021/12/10 10:17:26;;;;;;;7.38;4.13;;;;;;;12.34;74.23;98550.59;5036919;28;20053;-79
2021/12/10 10:19:53;;;;;;;3.85;2.30;;;;;;;12.45;74.03;98546.44;5039894;28;20586;-79
2021/12/10 10:22:26;;;;;;;7.88;4.68;;;;;;;12.52;73.92;98555.97;5034722;28;20469;-78
2021/12/10 10:24:52;;;;;;;6.47;3.97;;;;;;;12.90;74.16;98610.72;5041800;28;20104;-78
2021/12/10 10:27:27;;;;;;;4.57;2.70;;;;;;;12.55;74.57;98552.06;5050311;28;20029;-77
2021/12/10 10:30:18;;;;;;;5.93;3.25;;;;;;;12.29;74.37;98505.44;5033389;28;20447;-76
2021/12/10 10:32:47;;;;;;;6.05;3.55;;;;;;;12.16;74.41;98505.53;5034795;28;20045;-78
2021/12/10 10:35:18;;;;;;;7.63;3.88;;;;;;;12.89;74.95;98628.47;5049293;28;20032;-77
2021/12/10 10:37:45;;;;;;;5.07;2.95;;;;;;;12.20;74.49;98507.53;5033757;28;20029;-78
2021/12/10 10:40:17;;;;;;;9.55;6.80;;;;;;;12.49;74.97;98566.97;5042961;28;20053;-78
2021/12/10 10:42:42;;;;;;;10.05;6.70;;;;;;;12.93;74.90;98583.81;5038665;28;20041;-78
2021/12/10 10:45:17;;;;;;;9.00;5.60;;;;;;;12.82;74.78;98564.13;5050941;28;20037;-78
2021/12/10 10:47:46;;;;;;;12.07;7.15;;;;;;;12.79;75.03;98534.59;5033584;28;20029;-79
2021/12/10 10:50:18;;;;;;;5.38;3.65;;;;;;;13.11;74.86;98575.91;5049772;28;20064;-78
2021/12/10 10:52:48;;;;;;;6.68;3.40;;;;;;;12.69;74.57;98525.31;5050541;28;20033;-77
2021/12/10 10:55:22;;;;;;;6.45;3.00;;;;;;;13.21;74.42;98588.69;5050627;28;20583;-78
2021/12/10 10:57:59;;;;;;;14.90;9.27;;;;;;;13.23;74.09;98591.91;5050585;28;20486;-77
2021/12/10 11:01:03;;;;;;;6.65;4.20;;;;;;;13.30;73.79;98592.66;5049188;28;20085;-78
2021/12/10 11:03:40;;;;;;;8.35;6.10;;;;;;;12.88;73.61;98518.22;5050388;28;20033;-77
2021/12/10 11:06:11;;;;;;;7.00;4.35;;;;;;;13.37;73.43;98598.72;5050326;28;20036;-78
2021/12/10 11:08:50;;;;;;;26.17;19.55;;;;;;;13.30;73.28;98582.06;5060287;28;20048;-77
2021/12/10 11:11:23;;;;;;;7.25;5.18;;;;;;;13.43;72.68;98589.09;5070543;28;20028;-78
2021/12/10 11:14:00;;;;;;;7.80;4.22;;;;;;;13.34;72.89;98599.16;5070527;28;20353;-78
2021/12/10 11:16:28;;;;;;;7.18;4.38;;;;;;;12.76;72.55;98527.91;5055630;28;20033;-78
2021/12/10 11:19:05;;;;;;;9.30;5.60;;;;;;;13.23;72.76;98603.34;5051913;28;20089;-78
2021/12/10 11:21:42;;;;;;;8.98;5.50;;;;;;;13.20;72.82;98609.06;5054363;28;20028;-77
2021/12/10 11:24:23;;;;;;;6.95;4.50;;;;;;;13.08;72.84;98597.53;5054202;28;20040;-77
2021/12/10 11:26:56;;;;;;;8.70;5.45;;;;;;;13.17;72.85;98614.81;5054168;28;20497;-78
2021/12/10 11:29:43;;;;;;;10.55;6.38;;;;;;;13.14;72.85;98632.94;5052866;28;20035;-77
2021/12/10 11:32:34;;;;;;;8.98;6.97;;;;;;;13.12;72.86;98638.47;5054143;28;20146;-77
2021/12/10 11:35:06;;;;;;;15.30;9.50;;;;;;;13.09;73.17;98636.25;5046822;28;20025;-77
2021/12/10 11:37:49;;;;;;;5.68;3.53;;;;;;;13.07;72.99;98646.25;5042401;28;20529;-78
2021/12/10 11:41:05;;;;;;;8.63;5.03;;;;;;;13.04;72.47;98644.84;5049506;28;20061;-77
2021/12/10 11:49:38;;;;;;;4.82;3.60;;;;;;;12.77;72.65;98637.31;5041166;28;20032;-79
2021/12/10 11:52:28;;;;;;;4.88;3.10;;;;;;;12.73;72.51;98634.28;5048897;28;20479;-79